Time;durP1;ratioP1;P1;durP2;ratioP2;P2;SDS_P1;SDS_P2;PMS_P1;PMS_P2;Temp;Humidity;BMP_temperature;BMP_pressure;BME280_temperature;BME280_humidity;BME280_pressure;Samples;Min_cycle;Max_cycle;Signal;HPM_P1;HPM_P2
2023/05/18 00:02:00;;;;;;;2.13;1.40;;;23.10;48.70;;;;;;5038196;28;20025;-70
2023/05/18 00:04:27;;;;;;;2.30;1.60;;;23.10;49.30;;;;;;5036007;28;20485;-70
2023/05/18 00:06:55;;;;;;;2.28;1.40;;;23.10;48.70;;;;;;5037920;28;20564;-69
2023/05/18 00:09:25;;;;;;;2.72;1.60;;;23.10;48.70;;;;;;5037788;28;20022;-70
2023/05/18 00:11:54;;;;;;;2.22;1.48;;;23.00;48.70;;;;;;5042239;28;20032;-70
2023/05/18 00:14:19;;;;;;;2.40;1.52;;;23.10;48.80;;;;;;5037722;28;20034;-70
2023/05/18 00:16:46;;;;;;;2.10;1.33;;;23.00;48.80;;;;;;5046259;28;20021;-70
2023/05/18 00:19:14;;;;;;;2.15;1.40;;;23.00;48.80;;;;;;5038585;28;20041;-70
2023/05/18 00:21:47;;;;;;;2.47;1.42;;;23.00;48.80;;;;;;5035863;28;20025;-70
2023/05/18 00:24:14;;;;;;;2.78;1.63;;;23.00;48.80;;;;;;5039882;28;20076;-70
2023/05/18 00:26:41;;;;;;;3.10;1.60;;;23.00;48.80;;;;;;5039758;28;20055;-70
2023/05/18 00:29:08;;;;;;;2.25;1.45;;;23.00;48.80;;;;;;5035931;28;20029;-70
2023/05/18 00:31:37;;;;;;;2.85;1.63;;;23.00;48.90;;;;;;5037095;28;20060;-69
2023/05/18 00:34:11;;;;;;;2.65;1.38;;;22.90;48.90;;;;;;5036276;28;20035;-70
2023/05/18 00:36:37;;;;;;;2.65;1.60;;;22.90;48.90;;;;;;5036176;28;20029;-70
2023/05/18 00:39:03;;;;;;;1.90;1.30;;;22.90;48.90;;;;;;5038007;28;20394;-70
2023/05/18 00:41:30;;;;;;;2.30;1.50;;;22.90;48.90;;;;;;5039508;28;20142;-70
2023/05/18 00:43:56;;;;;;;2.25;1.42;;;22.90;48.90;;;;;;5040041;28;20453;-70
2023/05/18 00:46:23;;;;;;;2.40;1.50;;;22.80;48.80;;;;;;5036440;28;20056;-70
2023/05/18 00:48:50;;;;;;;2.25;1.50;;;22.80;49.40;;;;;;5037711;28;20546;-70
2023/05/18 00:51:19;;;;;;;2.42;1.40;;;22.80;48.90;;;;;;5034719;28;20059;-70
2023/05/18 00:53:45;;;;;;;;;;;22.80;49.00;;;;;;5037549;28;20501;-69
2023/05/18 00:56:11;;;;;;;2.33;1.42;;;22.80;49.00;;;;;;5038246;28;19909;-70
2023/05/18 00:58:40;;;;;;;2.75;1.50;;;22.80;49.00;;;;;;5038971;28;20033;-69
2023/05/18 01:01:08;;;;;;;2.28;1.40;;;22.70;48.90;;;;;;5041389;28;20342;-69
2023/05/18 01:03:36;;;;;;;2.58;1.50;;;22.70;49.00;;;;;;5048527;28;20438;-70
2023/05/18 01:06:06;;;;;;;2.33;1.50;;;22.70;49.00;;;;;;5043003;28;20362;-70
2023/05/18 01:08:33;;;;;;;2.33;1.45;;;22.70;49.00;;;;;;5044196;28;20064;-70
2023/05/18 01:11:26;;;;;;;2.10;1.50;;;22.70;49.10;;;;;;5044189;28;20557;-70
2023/05/18 01:14:30;;;;;;;2.53;1.60;;;22.70;49.10;;;;;;5033384;28;20057;-70
2023/05/18 01:17:02;;;;;;;2.13;1.40;;;22.60;49.00;;;;;;5042515;28;20527;-70
2023/05/18 01:20:10;;;;;;;2.38;1.50;;;22.60;49.00;;;;;;5043047;28;20159;-70
2023/05/18 01:22:40;;;;;;;2.30;1.50;;;22.60;49.00;;;;;;5043446;28;20362;-70
2023/05/18 01:25:18;;;;;;;2.20;1.42;;;22.60;49.00;;;;;;5045724;28;20029;-69
2023/05/18 01:27:45;;;;;;;2.08;1.30;;;22.60;49.00;;;;;;5042620;28;20347;-69
2023/05/18 01:30:14;;;;;;;2.00;1.15;;;22.60;49.10;;;;;;5042310;28;20560;-69
2023/05/18 01:32:41;;;;;;;;;;;22.60;49.10;;;;;;5045048;28;20440;-70
2023/05/18 01:35:07;;;;;;;1.88;1.20;;;22.50;49.10;;;;;;5043021;28;20312;-70
2023/05/18 01:37:33;;;;;;;2.10;1.30;;;22.50;49.10;;;;;;5045434;28;20450;-70
2023/05/18 01:39:59;;;;;;;2.50;1.45;;;22.50;49.10;;;;;;5042540;28;20067;-70
2023/05/18 01:42:29;;;;;;;1.92;1.40;;;22.50;49.20;;;;;;5044937;28;20045;-70
2023/05/18 01:45:01;;;;;;;2.20;1.50;;;22.50;49.10;;;;;;5043654;28;20060;-70
2023/05/18 01:47:30;;;;;;;2.00;1.38;;;22.50;49.20;;;;;;5043844;28;20449;-70
2023/05/18 01:50:12;;;;;;;2.30;1.30;;;22.50;49.20;;;;;;5073077;28;20125;-70
2023/05/18 01:52:41;;;;;;;2.40;1.50;;;22.40;49.20;;;;;;5044420;28;20026;-70
2023/05/18 01:55:08;;;;;;;1.77;1.30;;;22.40;49.20;;;;;;5042248;28;20045;-70
2023/05/18 01:57:37;;;;;;;2.10;1.40;;;22.40;49.20;;;;;;5043453;28;20026;-70
2023/05/18 02:00:07;;;;;;;1.90;1.30;;;22.40;49.20;;;;;;5043825;28;20029;-70
2023/05/18 02:02:34;;;;;;;2.10;1.40;;;22.40;49.70;;;;;;5076012;28;20099;-70
2023/05/18 02:05:00;;;;;;;2.45;1.40;;;22.40;49.30;;;;;;5044107;28;20551;-69
2023/05/18 02:07:25;;;;;;;2.10;1.40;;;22.30;49.20;;;;;;5042345;28;20029;-70
2023/05/18 02:09:51;;;;;;;1.73;1.17;;;22.40;49.30;;;;;;5044393;28;20029;-69
2023/05/18 02:12:16;;;;;;;1.60;1.20;;;22.40;49.40;;;;;;5041151;28;20496;-69
2023/05/18 02:14:42;;;;;;;2.13;1.30;;;22.30;49.30;;;;;;5037871;28;20104;-70
2023/05/18 02:17:08;;;;;;;1.38;1.10;;;22.30;49.30;;;;;;5042426;28;20371;-70
2023/05/18 02:19:37;;;;;;;1.90;1.23;;;22.30;49.30;;;;;;5037069;28;20031;-70
2023/05/18 02:22:06;;;;;;;1.60;1.20;;;22.30;49.40;;;;;;5039088;28;20489;-70
2023/05/18 02:24:35;;;;;;;2.35;1.50;;;22.30;49.30;;;;;;5039678;28;20044;-70
2023/05/18 02:27:00;;;;;;;1.88;1.30;;;22.20;49.30;;;;;;5045248;28;20033;-70
2023/05/18 02:29:26;;;;;;;2.00;1.30;;;22.30;49.40;;;;;;5039348;28;20046;-69
2023/05/18 02:31:52;;;;;;;2.30;1.50;;;22.20;49.40;;;;;;5036424;28;20029;-69
2023/05/18 02:34:20;;;;;;;2.50;1.50;;;22.20;49.40;;;;;;5040687;28;20461;-68
2023/05/18 02:36:47;;;;;;;2.15;1.25;;;22.20;49.40;;;;;;5038048;28;20049;-69
2023/05/18 02:39:12;;;;;;;2.08;1.27;;;22.20;49.50;;;;;;5038050;28;20029;-69
2023/05/18 02:41:38;;;;;;;2.15;1.30;;;22.10;49.40;;;;;;5039287;28;20087;-69
2023/05/18 02:44:04;;;;;;;2.60;1.40;;;22.10;49.40;;;;;;5038643;28;20120;-70
2023/05/18 02:46:30;;;;;;;2.35;1.40;;;22.20;49.50;;;;;;5036047;28;20108;-69
2023/05/18 02:48:56;;;;;;;2.00;1.35;;;22.20;49.50;;;;;;5038514;28;20087;-70
2023/05/18 02:51:22;;;;;;;2.25;1.20;;;22.10;49.40;;;;;;5038521;28;20029;-68
2023/05/18 02:53:49;;;;;;;1.83;1.40;;;22.10;49.40;;;;;;5039308;28;20094;-69
2023/05/18 02:56:16;;;;;;;2.40;1.25;;;22.10;49.50;;;;;;5039349;28;20091;-68
2023/05/18 02:58:42;;;;;;;2.35;1.30;;;22.10;49.50;;;;;;5039173;28;20032;-70
2023/05/18 03:01:08;;;;;;;1.95;1.25;;;22.10;49.50;;;;;;5040802;28;20026;-69
2023/05/18 03:03:34;;;;;;;2.35;1.40;;;22.10;49.50;;;;;;5040533;28;20048;-63
2023/05/18 03:06:03;;;;;;;2.08;1.30;;;22.10;49.50;;;;;;5037257;28;20446;-69
2023/05/18 03:08:30;;;;;;;2.38;1.35;;;22.00;49.50;;;;;;5040867;28;20332;-70
2023/05/18 03:10:56;;;;;;;2.10;1.30;;;22.10;49.60;;;;;;5039235;28;20034;-69
2023/05/18 03:13:22;;;;;;;2.22;1.20;;;22.00;49.50;;;;;;5039379;28;20021;-69
2023/05/18 03:15:49;;;;;;;2.05;1.27;;;22.00;49.50;;;;;;5039804;28;20025;-69
2023/05/18 03:18:15;;;;;;;2.80;1.25;;;22.00;49.60;;;;;;5037628;28;20089;-69
2023/05/18 03:20:42;;;;;;;2.45;1.23;;;22.00;49.60;;;;;;5039799;28;20021;-69
2023/05/18 03:23:08;;;;;;;2.00;1.20;;;22.00;49.60;;;;;;5038036;28;20507;-69
2023/05/18 03:25:36;;;;;;;1.77;1.20;;;22.00;49.60;;;;;;5038289;28;20055;-69
2023/05/18 03:28:03;;;;;;;2.00;1.20;;;22.00;49.60;;;;;;5038130;28;20025;-69
2023/05/18 03:30:31;;;;;;;2.78;1.30;;;22.00;49.60;;;;;;5071690;28;20060;-69
2023/05/18 03:32:58;;;;;;;1.70;1.25;;;21.90;49.60;;;;;;5038618;28;20030;-69
2023/05/18 03:35:23;;;;;;;1.70;1.20;;;21.90;49.60;;;;;;5040273;28;20021;-70
2023/05/18 03:37:49;;;;;;;1.88;1.20;;;21.90;50.20;;;;;;5036655;28;20033;-69
2023/05/18 03:40:15;;;;;;;1.67;1.17;;;21.90;49.60;;;;;;5039452;28;20495;-69
2023/05/18 03:42:41;;;;;;;2.30;1.30;;;21.90;49.60;;;;;;5038910;28;20033;-69
2023/05/18 03:45:08;;;;;;;1.98;1.17;;;21.90;49.60;;;;;;5040079;28;20033;-69
2023/05/18 03:47:33;;;;;;;1.80;1.20;;;21.90;49.60;;;;;;5036365;28;20048;-69
2023/05/18 03:50:01;;;;;;;1.98;1.20;;;21.90;49.60;;;;;;5037344;28;20497;-69
2023/05/18 03:52:28;;;;;;;1.83;1.17;;;21.90;49.60;;;;;;5035256;28;20033;-69
2023/05/18 03:54:55;;;;;;;1.70;1.10;;;21.90;49.60;;;;;;5041209;28;20021;-69
2023/05/18 03:57:21;;;;;;;2.03;1.33;;;21.90;50.10;;;;;;5038817;28;20481;-69
2023/05/18 03:59:46;;;;;;;1.85;1.17;;;21.90;49.60;;;;;;5035759;28;20080;-70
2023/05/18 04:02:12;;;;;;;1.85;1.20;;;21.80;49.60;;;;;;5040204;28;20431;-68
2023/05/18 04:04:41;;;;;;;2.22;1.40;;;21.80;49.60;;;;;;5034532;28;20135;-69
2023/05/18 04:07:09;;;;;;;1.60;1.20;;;21.80;49.60;;;;;;5035845;28;20020;-69
2023/05/18 04:09:35;;;;;;;1.40;1.10;;;21.80;49.60;;;;;;5039271;28;20446;-69
2023/05/18 04:12:02;;;;;;;1.88;1.20;;;21.80;49.60;;;;;;5037873;28;20288;-69
2023/05/18 04:14:27;;;;;;;2.08;1.40;;;21.80;49.60;;;;;;5038488;28;20481;-69
2023/05/18 04:16:54;;;;;;;1.92;1.20;;;21.80;49.60;;;;;;5039073;28;20074;-69
2023/05/18 04:19:20;;;;;;;1.80;1.13;;;21.80;49.60;;;;;;5035732;28;20029;-69
2023/05/18 04:21:47;;;;;;;1.83;1.27;;;21.80;49.70;;;;;;5038014;28;20032;-69
2023/05/18 04:24:13;;;;;;;1.55;1.13;;;21.80;49.70;;;;;;5038507;28;20556;-69
2023/05/18 04:26:41;;;;;;;1.75;1.10;;;21.70;49.60;;;;;;5037572;28;20032;-69
2023/05/18 04:29:09;;;;;;;2.15;1.42;;;21.70;49.60;;;;;;5038566;28;20051;-69
2023/05/18 04:31:36;;;;;;;2.05;1.35;;;21.70;49.60;;;;;;5036133;28;20025;-69
2023/05/18 04:34:01;;;;;;;1.70;1.20;;;21.70;49.60;;;;;;5038026;28;20074;-68
2023/05/18 04:36:29;;;;;;;2.35;1.20;;;21.70;49.70;;;;;;5035153;28;20424;-69
2023/05/18 04:38:58;;;;;;;2.00;1.30;;;21.70;49.70;;;;;;5038253;28;20357;-69
2023/05/18 04:41:24;;;;;;;2.67;1.10;;;21.70;49.70;;;;;;5039134;28;20449;-69
2023/05/18 04:43:52;;;;;;;2.05;1.30;;;21.70;49.70;;;;;;5054131;28;20295;-70
2023/05/18 04:46:17;;;;;;;1.65;1.10;;;21.60;49.60;;;;;;5039049;28;20409;-68
2023/05/18 04:48:43;;;;;;;1.83;1.17;;;21.70;49.70;;;;;;5043152;28;20036;-68
2023/05/18 04:51:09;;;;;;;1.52;1.10;;;21.70;49.70;;;;;;5038910;28;20376;-68
2023/05/18 04:53:37;;;;;;;1.90;1.17;;;21.60;49.60;;;;;;5037347;28;20092;-68
2023/05/18 04:56:03;;;;;;;1.77;1.20;;;21.60;49.70;;;;;;5037046;28;20032;-69
2023/05/18 04:58:29;;;;;;;1.85;1.20;;;21.70;49.70;;;;;;5036855;28;20493;-68
2023/05/18 05:00:55;;;;;;;1.50;1.10;;;21.60;49.70;;;;;;5037366;28;20159;-68
2023/05/18 05:03:21;;;;;;;1.50;1.10;;;21.60;49.70;;;;;;5036141;28;20025;-68
2023/05/18 05:05:47;;;;;;;1.48;1.00;;;21.60;49.70;;;;;;5037628;28;20374;-68
2023/05/18 05:08:12;;;;;;;1.50;1.10;;;21.60;49.70;;;;;;5033782;28;20032;-69
2023/05/18 05:10:38;;;;;;;1.98;1.10;;;21.60;50.20;;;;;;5037528;28;20032;-69
2023/05/18 05:13:04;;;;;;;1.67;1.00;;;21.60;49.80;;;;;;5036393;28;20581;-69
2023/05/18 05:15:29;;;;;;;2.15;1.20;;;21.60;49.70;;;;;;5033094;28;20033;-69
2023/05/18 05:17:57;;;;;;;1.77;1.17;;;21.60;49.70;;;;;;5036055;28;20025;-69
2023/05/18 05:20:22;;;;;;;1.67;1.17;;;21.60;49.80;;;;;;5037562;28;20086;-68
2023/05/18 05:22:48;;;;;;;2.45;1.30;;;21.50;49.70;;;;;;5034811;28;20096;-69
2023/05/18 05:25:14;;;;;;;1.80;1.17;;;21.50;49.80;;;;;;5036227;28;20159;-69
2023/05/18 05:27:40;;;;;;;1.27;1.02;;;21.60;49.80;;;;;;5036657;28;20112;-69
2023/05/18 05:30:06;;;;;;;1.45;1.00;;;21.50;49.80;;;;;;5035620;28;20437;-68
2023/05/18 05:32:32;;;;;;;1.35;1.10;;;21.50;49.80;;;;;;5037110;28;20033;-68
2023/05/18 05:34:58;;;;;;;1.88;1.20;;;21.50;49.80;;;;;;5037383;28;20319;-69
2023/05/18 05:37:23;;;;;;;2.05;1.00;;;21.50;49.80;;;;;;5037062;28;20532;-69
2023/05/18 05:39:49;;;;;;;1.95;1.20;;;21.50;49.80;;;;;;5038106;28;20033;-69
2023/05/18 05:42:15;;;;;;;1.88;1.20;;;21.50;49.80;;;;;;5037056;28;20555;-69
2023/05/18 05:44:41;;;;;;;2.00;1.20;;;21.50;49.80;;;;;;5037362;28;20114;-69
2023/05/18 05:47:07;;;;;;;1.40;1.10;;;21.50;49.90;;;;;;5038857;28;20096;-69
2023/05/18 05:49:33;;;;;;;1.60;1.10;;;21.50;49.90;;;;;;5039738;28;20552;-69
2023/05/18 05:51:59;;;;;;;1.83;1.00;;;21.50;49.90;;;;;;5041343;28;20037;-69
2023/05/18 05:54:24;;;;;;;2.25;1.40;;;21.50;49.90;;;;;;5037191;28;20030;-68
2023/05/18 05:56:50;;;;;;;1.88;1.20;;;21.50;49.90;;;;;;5041219;28;20026;-69
2023/05/18 05:59:16;;;;;;;1.80;1.10;;;21.50;50.00;;;;;;5039635;28;20060;-68
2023/05/18 06:01:41;;;;;;;2.13;1.25;;;21.50;50.00;;;;;;5041643;28;20033;-68
2023/05/18 06:04:09;;;;;;;2.00;1.27;;;21.40;49.90;;;;;;5040081;28;20029;-68
2023/05/18 06:06:37;;;;;;;1.90;1.25;;;21.40;50.00;;;;;;5040657;28;20033;-69
2023/05/18 06:09:03;;;;;;;2.30;1.20;;;21.40;50.00;;;;;;5044295;28;20033;-68
2023/05/18 06:11:30;;;;;;;2.88;1.10;;;21.40;50.00;;;;;;5041948;28;20040;-68
2023/05/18 06:13:56;;;;;;;1.73;1.10;;;21.40;50.00;;;;;;5039028;28;20033;-68
2023/05/18 06:16:21;;;;;;;1.73;1.10;;;21.40;50.00;;;;;;5037716;28;20341;-68
2023/05/18 06:18:47;;;;;;;1.90;1.10;;;21.50;50.10;;;;;;5039643;28;20017;-68
2023/05/18 06:21:14;;;;;;;1.65;1.15;;;21.40;50.00;;;;;;5037236;28;20106;-68
2023/05/18 06:23:40;;;;;;;1.73;1.10;;;21.40;50.00;;;;;;5039367;28;20355;-68
2023/05/18 06:26:05;;;;;;;2.42;1.25;;;21.40;50.00;;;;;;5039611;28;20044;-68
2023/05/18 06:28:31;;;;;;;1.65;1.10;;;21.40;49.90;;;;;;5037679;28;20543;-68
2023/05/18 06:30:57;;;;;;;2.00;1.30;;;21.40;50.00;;;;;;5039527;28;20089;-68
2023/05/18 06:33:23;;;;;;;2.28;1.10;;;21.40;49.90;;;;;;5041283;28;20156;-68
2023/05/18 06:35:48;;;;;;;2.15;1.20;;;21.40;49.90;;;;;;5042802;28;20057;-68
2023/05/18 06:38:14;;;;;;;1.77;1.17;;;21.40;49.90;;;;;;5040870;28;20539;-68
2023/05/18 06:40:39;;;;;;;2.30;1.25;;;21.40;49.90;;;;;;5040414;28;20081;-68
2023/05/18 06:43:05;;;;;;;1.75;1.23;;;21.40;49.80;;;;;;5038188;28;20061;-68
2023/05/18 06:45:31;;;;;;;2.17;1.40;;;21.40;49.80;;;;;;5040758;28;20036;-68
2023/05/18 06:47:56;;;;;;;2.42;1.30;;;21.40;49.80;;;;;;5039560;28;20389;-68
2023/05/18 06:50:22;;;;;;;1.98;1.27;;;21.40;49.70;;;;;;5041451;28;20036;-68
2023/05/18 06:52:47;;;;;;;2.58;1.50;;;21.40;49.70;;;;;;5038794;28;20479;-68
2023/05/18 06:55:14;;;;;;;2.67;1.25;;;21.40;49.70;;;;;;5040182;28;20148;-68
2023/05/18 06:57:40;;;;;;;2.60;1.30;;;21.40;49.70;;;;;;5039439;28;20361;-68
2023/05/18 07:00:07;;;;;;;1.75;1.20;;;21.40;49.70;;;;;;5040598;28;20056;-68
2023/05/18 07:02:33;;;;;;;2.53;1.30;;;21.40;49.70;;;;;;5039438;28;20127;-67
2023/05/18 07:05:00;;;;;;;2.70;1.17;;;21.40;49.80;;;;;;5040729;28;20427;-68
2023/05/18 07:07:25;;;;;;;2.22;1.23;;;21.40;49.70;;;;;;5041446;28;20029;-68
2023/05/18 07:09:53;;;;;;;2.45;1.20;;;21.40;49.70;;;;;;5039560;28;20477;-68
2023/05/18 07:12:19;;;;;;;2.45;1.30;;;21.40;49.70;;;;;;5037504;28;20108;-68
2023/05/18 07:14:45;;;;;;;2.63;1.38;;;21.40;49.70;;;;;;5042561;28;20025;-69
2023/05/18 07:17:10;;;;;;;2.45;1.10;;;21.30;49.70;;;;;;5039463;28;20033;-68
2023/05/18 07:19:36;;;;;;;2.10;1.17;;;21.30;49.70;;;;;;5037450;28;20511;-68
2023/05/18 07:22:03;;;;;;;2.25;1.20;;;21.30;49.70;;;;;;5035925;28;20025;-68
2023/05/18 07:24:29;;;;;;;3.15;1.20;;;21.30;49.70;;;;;;5036593;28;20389;-68
2023/05/18 07:26:55;;;;;;;2.40;1.35;;;21.30;49.70;;;;;;5039338;28;20029;-69
2023/05/18 07:29:20;;;;;;;2.88;1.40;;;21.30;49.80;;;;;;5037170;28;20089;-68
2023/05/18 07:31:46;;;;;;;2.20;1.27;;;21.30;49.80;;;;;;5039568;28;20110;-68
2023/05/18 07:34:12;;;;;;;1.98;1.10;;;21.30;49.80;;;;;;5039362;28;20048;-68
2023/05/18 07:36:37;;;;;;;1.80;1.17;;;21.30;49.80;;;;;;5038020;28;20165;-68
2023/05/18 07:39:03;;;;;;;1.85;1.20;;;21.30;49.80;;;;;;5037995;28;20044;-68
2023/05/18 07:41:30;;;;;;;2.10;1.20;;;21.30;49.80;;;;;;5039082;28;20167;-67
2023/05/18 07:43:56;;;;;;;3.65;1.33;;;21.30;49.80;;;;;;5036900;28;20037;-68
2023/05/18 07:46:22;;;;;;;1.88;1.10;;;21.30;49.80;;;;;;5041019;28;20033;-68
2023/05/18 07:48:47;;;;;;;2.72;1.20;;;21.30;49.80;;;;;;5042049;28;20389;-68
2023/05/18 07:51:13;;;;;;;2.00;1.20;;;21.30;49.80;;;;;;5037084;28;20033;-68
2023/05/18 07:53:40;;;;;;;2.47;1.27;;;21.30;49.80;;;;;;5037569;28;20450;-67
2023/05/18 07:56:07;;;;;;;2.20;1.20;;;21.30;49.80;;;;;;5037876;28;20319;-68
2023/05/18 07:58:34;;;;;;;2.47;1.20;;;21.30;49.80;;;;;;5039200;28;20494;-68
2023/05/18 08:01:00;;;;;;;2.40;1.15;;;21.30;49.80;;;;;;5040285;28;20013;-68
2023/05/18 08:03:25;;;;;;;2.55;1.13;;;21.30;49.90;;;;;;5038045;28;20402;-68
2023/05/18 08:05:51;;;;;;;2.03;1.20;;;21.30;49.90;;;;;;5037091;28;20066;-68
2023/05/18 08:08:17;;;;;;;1.70;1.05;;;21.30;49.90;;;;;;5035344;28;20094;-68
2023/05/18 08:10:43;;;;;;;2.83;1.25;;;21.30;49.90;;;;;;5040459;28;20365;-68
2023/05/18 08:13:09;;;;;;;1.95;1.10;;;21.30;49.90;;;;;;5039559;28;20135;-67
2023/05/18 08:15:36;;;;;;;2.85;1.30;;;21.30;49.90;;;;;;5036864;28;20029;-68
2023/05/18 08:18:01;;;;;;;2.58;1.23;;;21.30;50.00;;;;;;5038330;28;20053;-67
2023/05/18 08:20:29;;;;;;;2.35;1.20;;;21.30;49.90;;;;;;5037426;28;20065;-68
2023/05/18 08:22:56;;;;;;;2.58;1.10;;;21.30;49.90;;;;;;5037319;28;20095;-68
2023/05/18 08:25:22;;;;;;;2.40;1.17;;;21.30;49.90;;;;;;5036085;28;20026;-68
2023/05/18 08:27:48;;;;;;;2.22;1.10;;;21.30;49.90;;;;;;5039291;28;20060;-68
2023/05/18 08:30:14;;;;;;;2.05;1.20;;;21.30;50.00;;;;;;5038863;28;20033;-67
2023/05/18 08:32:39;;;;;;;2.80;1.40;;;21.30;49.90;;;;;;5040440;28;20037;-68
2023/05/18 08:35:07;;;;;;;3.33;1.10;;;21.30;49.90;;;;;;5037701;28;20520;-67
2023/05/18 08:37:33;;;;;;;2.15;1.15;;;21.30;49.90;;;;;;5038459;28;20021;-68
2023/05/18 08:39:59;;;;;;;1.80;1.10;;;21.30;50.00;;;;;;5036458;28;20550;-68
2023/05/18 08:42:38;;;;;;;3.15;1.30;;;21.30;49.90;;;;;;5039674;28;20113;-69
2023/05/18 08:45:18;;;;;;;;;;;21.30;50.00;;;;;;5036864;28;20055;-68
2023/05/18 08:47:44;;;;;;;1.88;1.25;;;21.30;50.00;;;;;;5039787;28;19960;-67
2023/05/18 08:50:12;;;;;;;2.97;1.20;;;21.30;50.00;;;;;;5038572;28;20488;-67
2023/05/18 08:52:45;;;;;;;2.20;1.10;;;21.30;50.00;;;;;;5035978;28;20072;-67
2023/05/18 08:55:11;;;;;;;2.53;1.20;;;21.30;50.00;;;;;;5035958;28;20457;-68
2023/05/18 08:57:40;;;;;;;2.03;1.10;;;21.30;50.00;;;;;;5037183;28;20389;-68
2023/05/18 09:00:08;;;;;;;2.65;1.30;;;21.30;50.00;;;;;;5043999;28;20025;-67
2023/05/18 09:02:35;;;;;;;2.88;1.20;;;21.30;50.00;;;;;;5036551;28;20034;-68
2023/05/18 09:05:02;;;;;;;1.98;1.10;;;21.30;50.00;;;;;;5036956;28;20136;-68
2023/05/18 09:07:28;;;;;;;2.38;1.20;;;21.30;50.00;;;;;;5036125;28;20029;-68
2023/05/18 09:09:54;;;;;;;1.95;1.10;;;21.30;50.10;;;;;;5037848;28;20469;-68
2023/05/18 09:12:24;;;;;;;2.10;1.02;;;21.30;50.00;;;;;;5037461;28;20068;-68
2023/05/18 09:14:50;;;;;;;2.75;1.13;;;21.30;50.10;;;;;;5036915;28;20558;-68
2023/05/18 09:17:15;;;;;;;2.13;1.10;;;21.30;50.10;;;;;;5034806;28;20029;-68
2023/05/18 09:19:42;;;;;;;2.00;1.00;;;21.30;50.10;;;;;;5037994;28;20074;-68
2023/05/18 09:22:08;;;;;;;1.70;1.10;;;21.30;50.10;;;;;;5039901;28;20029;-68
2023/05/18 09:24:36;;;;;;;2.42;1.10;;;21.30;50.10;;;;;;5039736;28;20033;-68
2023/05/18 09:27:03;;;;;;;2.97;1.20;;;21.20;50.00;;;;;;5039778;28;20160;-68
2023/05/18 09:29:28;;;;;;;2.33;1.17;;;21.30;50.10;;;;;;5041498;28;20041;-68
2023/05/18 09:31:54;;;;;;;2.40;1.10;;;21.30;50.10;;;;;;5042756;28;20460;-69
2023/05/18 09:34:20;;;;;;;2.15;1.20;;;21.30;50.60;;;;;;5039864;28;20032;-68
2023/05/18 09:36:51;;;;;;;2.05;1.00;;;21.30;50.10;;;;;;5042308;28;20032;-69
2023/05/18 09:39:17;;;;;;;1.83;1.10;;;21.30;50.10;;;;;;5040305;28;20058;-68
2023/05/18 09:41:43;;;;;;;2.10;1.08;;;21.30;50.40;;;;;;5040440;28;20060;-68
2023/05/18 09:44:11;;;;;;;2.15;1.00;;;21.40;50.30;;;;;;5040662;28;20025;-68
2023/05/18 09:46:37;;;;;;;1.85;0.90;;;21.40;50.10;;;;;;5041170;28;20481;-68
2023/05/18 09:49:04;;;;;;;1.95;0.90;;;21.50;50.00;;;;;;5049157;28;20031;-68
2023/05/18 09:51:34;;;;;;;2.65;1.30;;;21.60;49.90;;;;;;5042849;28;20056;-67
2023/05/18 09:54:03;;;;;;;2.42;1.00;;;21.70;49.70;;;;;;5037726;28;20372;-68
2023/05/18 09:56:30;;;;;;;2.13;1.08;;;21.80;49.50;;;;;;5038212;28;20106;-68
2023/05/18 09:58:57;;;;;;;1.80;1.00;;;21.90;49.50;;;;;;5043414;28;20491;-67
2023/05/18 10:01:22;;;;;;;2.90;1.23;;;22.00;49.30;;;;;;5040894;28;20380;-68
2023/05/18 10:03:48;;;;;;;2.05;1.00;;;22.00;49.20;;;;;;5042136;28;20036;-68
2023/05/18 10:06:18;;;;;;;1.83;1.05;;;22.10;49.10;;;;;;5042116;28;20115;-67
2023/05/18 10:08:44;;;;;;;2.60;1.30;;;22.20;48.90;;;;;;5040900;28;20021;-68
2023/05/18 10:11:10;;;;;;;2.65;1.30;;;22.30;48.70;;;;;;5039562;28;20087;-68
2023/05/18 10:13:36;;;;;;;2.40;1.17;;;22.40;48.50;;;;;;5039001;28;20037;-68
2023/05/18 10:16:06;;;;;;;2.67;1.30;;;22.50;48.40;;;;;;5039448;28;20027;-67
2023/05/18 10:18:33;;;;;;;;;;;22.60;48.30;;;;;;5043060;28;20040;-68
2023/05/18 10:21:01;;;;;;;2.25;1.20;;;22.70;48.20;;;;;;5039280;28;20419;-67
2023/05/18 10:23:36;;;;;;;2.15;1.20;;;22.70;47.90;;;;;;5041268;28;20056;-68
2023/05/18 10:26:06;;;;;;;2.20;1.00;;;22.90;47.80;;;;;;5038271;28;20039;-65
2023/05/18 10:28:44;;;;;;;2.05;1.17;;;22.80;47.60;;;;;;5039215;28;20107;-69
2023/05/18 10:31:09;;;;;;;2.03;1.17;;;22.80;47.60;;;;;;5041461;28;20072;-68
2023/05/18 10:33:36;;;;;;;2.38;1.13;;;22.80;48.30;;;;;;5037754;28;20048;-68
2023/05/18 10:36:03;;;;;;;1.85;1.15;;;22.80;47.70;;;;;;5037677;28;20474;-68
2023/05/18 10:38:30;;;;;;;2.30;1.00;;;22.80;47.80;;;;;;5042172;28;20041;-68
2023/05/18 10:40:59;;;;;;;1.77;0.98;;;22.80;47.90;;;;;;5040135;28;20029;-68
2023/05/18 10:43:26;;;;;;;2.15;1.15;;;22.80;47.80;;;;;;5038553;28;20534;-68
2023/05/18 10:45:53;;;;;;;2.17;1.15;;;22.80;47.80;;;;;;5039037;28;20025;-68
2023/05/18 10:48:20;;;;;;;2.25;1.10;;;22.70;47.80;;;;;;5038785;28;20092;-69
2023/05/18 10:50:51;;;;;;;2.30;1.00;;;22.80;47.80;;;;;;5039993;28;20040;-68
2023/05/18 10:53:28;;;;;;;2.90;1.20;;;22.80;47.80;;;;;;5041956;28;20034;-68
2023/05/18 10:55:54;;;;;;;2.10;1.00;;;22.70;47.70;;;;;;5039903;28;20152;-68
2023/05/18 10:58:23;;;;;;;1.85;1.00;;;22.70;47.70;;;;;;5040578;28;20184;-68
2023/05/18 11:00:52;;;;;;;1.98;1.10;;;22.70;47.70;;;;;;5040559;28;20024;-68
2023/05/18 11:03:19;;;;;;;1.95;1.02;;;22.80;47.80;;;;;;5038062;28;20037;-69
2023/05/18 11:05:50;;;;;;;2.10;1.08;;;22.70;47.70;;;;;;5040353;28;20056;-68
2023/05/18 11:08:25;;;;;;;1.58;1.00;;;22.70;47.70;;;;;;5040029;28;20516;-68
2023/05/18 11:11:01;;;;;;;2.42;1.20;;;22.70;47.70;;;;;;5037175;28;20052;-68
2023/05/18 11:13:34;;;;;;;2.75;1.05;;;22.70;47.70;;;;;;5038630;28;20025;-69
2023/05/18 11:16:04;;;;;;;2.00;1.00;;;22.70;47.70;;;;;;5038496;28;20492;-69
2023/05/18 11:18:41;;;;;;;2.88;1.45;;;22.70;47.70;;;;;;5041582;28;20439;-68
2023/05/18 11:21:23;;;;;;;1.92;0.95;;;22.70;47.70;;;;;;5034051;28;20027;-68
2023/05/18 11:24:22;;;;;;;4.72;1.30;;;22.70;47.70;;;;;;5038204;28;20036;-69
2023/05/18 11:26:53;;;;;;;2.28;1.00;;;22.70;47.70;;;;;;5037822;28;20025;-68
2023/05/18 11:29:39;;;;;;;1.23;0.90;;;22.70;47.70;;;;;;5036963;28;20485;-67
2023/05/18 11:32:25;;;;;;;2.25;1.10;;;22.70;47.70;;;;;;5038917;28;20079;-69
2023/05/18 11:34:52;;;;;;;2.17;0.80;;;22.70;47.70;;;;;;5040045;28;20511;-68
2023/05/18 11:37:36;;;;;;;1.67;1.00;;;22.70;47.70;;;;;;5036020;28;20108;-69
2023/05/18 11:40:03;;;;;;;2.25;0.90;;;22.70;47.70;;;;;;5039138;28;21475;-69
2023/05/18 11:42:34;;;;;;;2.17;0.90;;;22.70;47.70;;;;;;5036851;28;20024;-69
2023/05/18 11:45:11;;;;;;;2.30;1.15;;;22.70;47.70;;;;;;5034814;28;20048;-69
2023/05/18 11:47:41;;;;;;;1.75;1.00;;;22.60;47.60;;;;;;5039556;28;20029;-69
2023/05/18 11:50:08;;;;;;;1.70;1.00;;;22.70;47.70;;;;;;5036739;28;20171;-70
2023/05/18 11:52:45;;;;;;;1.77;0.90;;;22.70;47.70;;;;;;5071499;28;20021;-69
2023/05/18 11:55:17;;;;;;;2.38;1.20;;;22.70;47.80;;;;;;5038581;28;20025;-69
2023/05/18 11:57:47;;;;;;;1.85;0.93;;;22.60;47.70;;;;;;5037939;28;20029;-69
2023/05/18 12:00:14;;;;;;;2.00;1.10;;;22.60;47.70;;;;;;5039058;28;20064;-69
2023/05/18 12:02:46;;;;;;;2.80;1.10;;;22.60;47.70;;;;;;5039775;28;20037;-69
2023/05/18 12:05:12;;;;;;;1.20;0.82;;;22.60;47.70;;;;;;5037285;28;20025;-69
2023/05/18 12:07:39;;;;;;;2.00;0.98;;;22.60;47.80;;;;;;5036303;28;20541;-69
2023/05/18 12:10:11;;;;;;;2.08;1.00;;;22.60;47.80;;;;;;5036444;28;20029;-69
2023/05/18 12:12:38;;;;;;;2.83;1.20;;;22.60;47.80;;;;;;5038434;28;20021;-69
2023/05/18 12:15:06;;;;;;;1.35;0.90;;;22.60;47.80;;;;;;5036985;28;20163;-69
2023/05/18 12:17:42;;;;;;;1.70;0.90;;;22.60;47.80;;;;;;5051782;28;20424;-68
2023/05/18 12:20:11;;;;;;;2.22;1.08;;;22.60;47.90;;;;;;5038678;28;20028;-69
2023/05/18 12:22:40;;;;;;;2.05;1.05;;;22.70;47.90;;;;;;5038247;28;20030;-69
2023/05/18 12:25:06;;;;;;;;;;;22.70;47.70;;;;;;5038139;28;20104;-69
2023/05/18 12:27:38;;;;;;;1.73;0.95;;;22.80;47.50;;;;;;5068382;28;20384;-67
2023/05/18 12:30:06;;;;;;;1.77;1.00;;;22.90;47.40;;;;;;5035517;28;20038;-69
2023/05/18 12:32:31;;;;;;;2.38;1.02;;;23.00;47.30;;;;;;5042310;28;20515;-70
2023/05/18 12:34:58;;;;;;;3.13;1.10;;;23.00;47.30;;;;;;5040419;28;20021;-69
2023/05/18 12:37:25;;;;;;;3.22;1.20;;;23.10;47.20;;;;;;5039704;28;20208;-69
2023/05/18 12:39:52;;;;;;;2.72;1.27;;;23.20;47.00;;;;;;5038882;28;20159;-70
2023/05/18 12:42:18;;;;;;;2.25;1.10;;;23.20;47.10;;;;;;5035216;28;20036;-69
2023/05/18 12:44:44;;;;;;;2.92;1.20;;;23.40;46.90;;;;;;5037984;28;20033;-69
2023/05/18 12:47:13;;;;;;;2.13;1.10;;;23.40;46.80;;;;;;5038368;28;20064;-69
2023/05/18 12:49:41;;;;;;;2.28;1.45;;;23.50;46.60;;;;;;5036895;28;20036;-69
2023/05/18 12:52:12;;;;;;;1.70;1.00;;;23.50;46.30;;;;;;5034864;28;20099;-69